createdAt,value
2022-11-03T00:01:43.343Z,75.20
2022-11-03T00:04:14.820Z,76.00
2022-11-03T00:06:42.763Z,76.20
2022-11-03T00:09:11.547Z,77.10
2022-11-03T00:11:40.087Z,76.50
2022-11-03T00:14:07.639Z,75.70
2022-11-03T00:16:34.366Z,75.40
2022-11-03T00:19:01.726Z,75.90
2022-11-03T00:21:30.077Z,76.00
2022-11-03T00:23:56.914Z,76.30
2022-11-03T00:26:26.150Z,76.20
2022-11-03T00:28:54.991Z,76.90
2022-11-03T00:31:26.032Z,78.20
2022-11-03T00:33:53.973Z,77.40
2022-11-03T00:36:26.983Z,77.50
2022-11-03T00:38:53.981Z,77.10
2022-11-03T00:41:21.704Z,77.00
2022-11-03T00:43:49.513Z,77.00
2022-11-03T00:46:16.915Z,77.00
2022-11-03T00:48:43.707Z,77.80
2022-11-03T00:51:16.583Z,79.10
2022-11-03T00:53:44.589Z,79.70
2022-11-03T00:56:23.993Z,80.90
2022-11-03T00:58:51.950Z,81.00
2022-11-03T01:01:21.497Z,78.80
2022-11-03T01:04:12.483Z,79.60
2022-11-03T01:06:52.566Z,79.00
2022-11-03T01:09:20.341Z,79.50
2022-11-03T01:12:04.963Z,79.80
2022-11-03T01:14:44.288Z,78.80
2022-11-03T01:17:16.701Z,78.40
2022-11-03T01:19:43.507Z,79.00
2022-11-03T01:22:11.354Z,78.70
2022-11-03T01:24:40.340Z,78.30
2022-11-03T01:27:08.103Z,76.40
2022-11-03T01:29:34.800Z,77.00
2022-11-03T01:32:01.528Z,76.80
2022-11-03T01:34:28.236Z,77.10
2022-11-03T01:36:54.975Z,77.80
2022-11-03T01:39:21.745Z,77.40
2022-11-03T01:41:50.710Z,77.30
2022-11-03T01:44:17.369Z,77.60
2022-11-03T01:46:48.586Z,76.20
2022-11-03T01:49:24.911Z,76.80
2022-11-03T01:51:59.517Z,77.30
2022-11-03T01:54:29.018Z,76.40
2022-11-03T01:56:57.324Z,76.60
2022-11-03T01:59:25.199Z,76.70
2022-11-03T02:01:52.273Z,76.50
2022-11-03T02:04:23.993Z,76.30
2022-11-03T02:06:58.055Z,77.40
2022-11-03T02:09:25.089Z,77.30
2022-11-03T02:12:07.821Z,76.80
2022-11-03T02:14:35.865Z,77.00
2022-11-03T02:17:06.519Z,76.70
2022-11-03T02:19:50.667Z,76.90
2022-11-03T02:22:41.957Z,77.50
2022-11-03T02:25:34.341Z,79.20
2022-11-03T02:28:02.416Z,78.90
2022-11-03T02:30:36.646Z,77.80
2022-11-03T02:33:46.287Z,75.80
2022-11-03T02:36:29.179Z,75.90
2022-11-03T02:39:19.116Z,75.30
2022-11-03T02:41:48.028Z,75.40
2022-11-03T02:44:18.103Z,77.00
2022-11-03T02:46:50.553Z,78.60
2022-11-03T02:49:17.256Z,79.70
2022-11-03T02:51:44.018Z,80.20
2022-11-03T02:54:23.126Z,79.40
2022-11-03T02:56:54.334Z,78.90
2022-11-03T02:59:27.677Z,79.20
2022-11-03T03:02:08.088Z,78.00
2022-11-03T03:04:36.708Z,78.70
2022-11-03T03:07:08.170Z,79.10
2022-11-03T03:09:48.994Z,78.50
2022-11-03T03:12:18.749Z,78.60
2022-11-03T03:14:46.947Z,78.30
2022-11-03T03:17:16.705Z,78.60
2022-11-03T03:19:56.352Z,78.30
2022-11-03T03:22:37.748Z,78.70
2022-11-03T03:25:20.930Z,77.90
2022-11-03T03:27:55.312Z,77.20
2022-11-03T03:30:22.366Z,76.30
2022-11-03T03:32:50.923Z,76.80
2022-11-03T03:35:23.047Z,77.30
2022-11-03T03:37:54.329Z,77.80
2022-11-03T03:40:43.983Z,78.80
2022-11-03T03:43:13.057Z,77.90
2022-11-03T03:45:42.788Z,77.10
2022-11-03T03:48:09.737Z,76.60
2022-11-03T03:50:39.733Z,77.50
2022-11-03T03:53:11.777Z,77.20
2022-11-03T03:55:41.547Z,76.80
2022-11-03T03:58:12.555Z,76.70
2022-11-03T04:00:40.245Z,76.40
2022-11-03T04:03:13.806Z,75.30
2022-11-03T04:05:40.499Z,76.60
2022-11-03T04:08:07.436Z,76.40
2022-11-03T04:10:34.419Z,76.80
2022-11-03T04:13:19.895Z,77.10
2022-11-03T04:15:52.671Z,77.00
2022-11-03T04:18:39.226Z,76.90
2022-11-03T04:21:26.096Z,76.80
2022-11-03T04:23:53.862Z,77.40
2022-11-03T04:26:23.538Z,77.60
2022-11-03T04:28:52.028Z,77.70
2022-11-03T04:31:19.699Z,76.90
2022-11-03T04:33:47.185Z,77.40
2022-11-03T04:36:17.299Z,77.10
2022-11-03T04:38:45.043Z,77.10
2022-11-03T04:41:17.015Z,75.70
2022-11-03T04:43:45.504Z,75.50
2022-11-03T04:46:24.896Z,77.10
2022-11-03T04:48:53.380Z,78.40
2022-11-03T04:51:24.548Z,77.30
2022-11-03T04:53:55.117Z,78.20
2022-11-03T04:56:24.963Z,77.40
2022-11-03T04:58:52.657Z,77.90
2022-11-03T05:01:24.231Z,77.20
2022-11-03T05:03:54.118Z,77.60
2022-11-03T05:06:27.442Z,78.10
2022-11-03T05:09:02.646Z,78.20
2022-11-03T05:11:38.360Z,77.80
2022-11-03T05:14:13.116Z,76.90
2022-11-03T05:16:39.947Z,75.90
2022-11-03T05:19:18.562Z,75.10
2022-11-03T05:21:48.452Z,76.10
2022-11-03T05:26:48.096Z,77.40
2022-11-03T05:29:20.812Z,77.00
2022-11-03T05:31:48.867Z,77.50
2022-11-03T05:34:30.801Z,77.10
2022-11-03T05:37:33.520Z,76.90
2022-11-03T05:40:17.282Z,75.70
2022-11-03T05:42:46.444Z,76.00
2022-11-03T05:45:20.559Z,75.80
2022-11-03T05:47:49.248Z,76.50
2022-11-03T05:50:21.593Z,76.20
2022-11-03T05:52:51.327Z,75.50
2022-11-03T05:55:38.361Z,76.00
2022-11-03T05:58:34.946Z,76.30
2022-11-03T06:01:10.407Z,76.40
2022-11-03T06:03:37.392Z,76.60
2022-11-03T06:06:24.188Z,76.60
2022-11-03T06:08:52.963Z,75.30
2022-11-03T06:11:35.442Z,75.30
2022-11-03T06:14:05.831Z,74.50
2022-11-03T06:16:36.518Z,75.80
2022-11-03T06:19:29.712Z,75.30
2022-11-03T06:22:01.891Z,76.00
2022-11-03T06:24:33.620Z,76.10
2022-11-03T06:27:00.291Z,76.00
2022-11-03T06:29:30.534Z,76.00
2022-11-03T06:31:57.993Z,76.20
2022-11-03T06:34:39.148Z,76.20
2022-11-03T06:37:15.750Z,76.90
2022-11-03T06:39:42.485Z,76.70
2022-11-03T06:42:13.900Z,76.60
2022-11-03T06:44:42.787Z,77.20
2022-11-03T06:47:26.745Z,77.20
2022-11-03T06:49:56.905Z,77.10
2022-11-03T06:52:37.320Z,77.70
2022-11-03T06:55:25.648Z,76.60
2022-11-03T06:57:58.533Z,76.70
2022-11-03T07:00:34.002Z,76.10
2022-11-03T07:03:11.091Z,74.30
2022-11-03T07:05:38.634Z,75.00
2022-11-03T07:08:20.449Z,76.10
2022-11-03T07:10:47.554Z,75.70
2022-11-03T07:13:18.168Z,75.70
2022-11-03T07:15:45.835Z,75.50
2022-11-03T07:18:38.099Z,77.10
2022-11-03T07:21:31.458Z,77.10
2022-11-03T07:24:01.328Z,77.10
2022-11-03T07:26:28.251Z,77.30
2022-11-03T07:28:55.385Z,77.40
2022-11-03T07:31:26.262Z,75.40
2022-11-03T07:33:59.248Z,76.30
2022-11-03T07:36:30.987Z,76.30
2022-11-03T07:39:01.252Z,77.10
2022-11-03T07:41:34.173Z,78.00
2022-11-03T07:44:02.310Z,77.70
2022-11-03T07:46:29.368Z,77.60
2022-11-03T07:49:02.071Z,77.60
2022-11-03T07:51:30.180Z,77.60
2022-11-03T07:54:08.842Z,75.70
2022-11-03T07:56:56.631Z,75.90
2022-11-03T07:59:44.899Z,75.50
2022-11-03T08:02:34.289Z,76.10
2022-11-03T08:05:01.470Z,76.60
2022-11-03T08:07:28.843Z,75.80
2022-11-03T08:09:56.313Z,75.70
2022-11-03T08:12:23.079Z,75.70
2022-11-03T08:14:49.903Z,75.40
2022-11-03T08:17:16.708Z,74.80
2022-11-03T08:19:43.447Z,74.70
2022-11-03T08:22:10.224Z,74.50
2022-11-03T08:24:36.942Z,74.40
2022-11-03T08:27:04.570Z,74.40
2022-11-03T08:29:31.664Z,74.50
2022-11-03T08:31:58.460Z,74.60
2022-11-03T08:34:25.147Z,74.40
2022-11-03T08:36:51.824Z,73.70
2022-11-03T08:39:18.508Z,73.80
2022-11-03T08:41:45.221Z,73.40
2022-11-03T08:44:11.888Z,73.40
2022-11-03T08:46:38.589Z,73.50
2022-11-03T08:49:05.262Z,73.60
2022-11-03T08:51:32.410Z,73.30
2022-11-03T08:53:59.063Z,73.20
2022-11-03T08:56:25.720Z,72.60
2022-11-03T08:58:52.530Z,72.90
2022-11-03T09:01:19.280Z,72.30
2022-11-03T09:03:46.182Z,72.10
2022-11-03T09:06:12.931Z,71.10
2022-11-03T09:11:26.371Z,71.60
2022-11-03T09:13:53.251Z,71.20
2022-11-03T09:16:19.949Z,70.80
2022-11-03T09:18:46.728Z,70.60
2022-11-03T09:21:14.780Z,70.40
2022-11-03T09:23:41.622Z,70.20
2022-11-03T09:26:08.297Z,69.90
2022-11-03T09:28:35.025Z,69.60
2022-11-03T09:31:01.712Z,69.60
2022-11-03T09:33:28.381Z,69.50
2022-11-03T09:35:55.069Z,69.60
2022-11-03T09:38:21.782Z,68.70
2022-11-03T09:43:20.339Z,68.90
2022-11-03T09:45:47.053Z,68.70
2022-11-03T09:48:14.002Z,68.80
2022-11-03T09:50:41.310Z,68.50
2022-11-03T09:53:11.814Z,68.30
2022-11-03T09:55:39.890Z,68.20
2022-11-03T09:58:14.659Z,68.50
2022-11-03T10:00:42.008Z,68.60
2022-11-03T10:03:13.854Z,68.70
2022-11-03T10:05:42.056Z,69.00
2022-11-03T10:08:22.380Z,68.70
2022-11-03T10:10:51.220Z,68.50
2022-11-03T10:13:34.344Z,68.10
2022-11-03T10:16:03.376Z,67.70
2022-11-03T10:18:30.127Z,67.50
2022-11-03T10:21:01.664Z,66.40
2022-11-03T10:23:28.319Z,66.50
2022-11-03T10:26:08.641Z,65.90
2022-11-03T10:28:35.352Z,65.40
2022-11-03T10:31:14.284Z,64.40
2022-11-03T10:33:51.878Z,64.20
2022-11-03T10:36:18.586Z,63.90
2022-11-03T10:38:45.789Z,63.00
2022-11-03T10:41:14.916Z,62.60
2022-11-03T10:43:44.061Z,62.90
2022-11-03T10:46:44.701Z,62.80
2022-11-03T10:49:10.336Z,63.20
2022-11-03T10:51:37.742Z,61.70
2022-11-03T10:54:05.971Z,61.10
2022-11-03T10:56:33.076Z,61.80
2022-11-03T10:59:00.980Z,62.70
2022-11-03T11:01:27.854Z,62.90
2022-11-03T11:03:55.266Z,62.10
2022-11-03T11:06:28.018Z,61.90
2022-11-03T11:09:00.979Z,61.80
2022-11-03T11:11:28.790Z,61.50
2022-11-03T11:14:35.323Z,59.90
2022-11-03T11:17:03.627Z,59.90
2022-11-03T11:19:49.331Z,58.00
2022-11-03T11:22:23.234Z,58.60
2022-11-03T11:24:49.911Z,55.70
2022-11-03T11:27:31.946Z,56.60
2022-11-03T11:30:00.369Z,55.60
2022-11-03T11:32:42.309Z,56.00
2022-11-03T11:35:16.855Z,56.00
2022-11-03T11:37:44.450Z,56.60
2022-11-03T11:40:26.102Z,55.90
2022-11-03T11:43:13.115Z,56.00
2022-11-03T11:46:17.308Z,56.10
2022-11-03T11:48:44.075Z,56.00
2022-11-03T11:51:12.160Z,55.40
2022-11-03T11:53:43.148Z,55.90
2022-11-03T11:56:16.401Z,56.10
2022-11-03T11:59:01.266Z,56.20
2022-11-03T12:01:30.862Z,56.70
2022-11-03T12:04:01.649Z,57.20
2022-11-03T12:06:46.318Z,57.30
2022-11-03T12:09:12.998Z,57.20
2022-11-03T12:11:46.104Z,57.70
2022-11-03T12:14:28.491Z,58.40
2022-11-03T12:16:56.836Z,59.10
2022-11-03T12:19:32.523Z,61.20
2022-11-03T12:21:59.344Z,60.70
2022-11-03T12:24:32.221Z,60.80
2022-11-03T12:27:00.344Z,60.60
2022-11-03T12:29:27.163Z,60.80
2022-11-03T12:31:54.108Z,60.90
2022-11-03T12:34:20.929Z,60.90
2022-11-03T12:36:51.813Z,61.40
2022-11-03T12:39:21.531Z,61.30
2022-11-03T12:41:48.221Z,61.10
2022-11-03T12:44:14.963Z,61.30
2022-11-03T12:46:41.645Z,61.40
2022-11-03T12:49:08.415Z,61.70
2022-11-03T12:51:35.123Z,61.60
2022-11-03T12:54:01.839Z,61.10
2022-11-03T12:56:28.583Z,61.50
2022-11-03T12:58:55.571Z,61.60
2022-11-03T13:01:22.424Z,61.60
2022-11-03T13:03:49.308Z,61.80
2022-11-03T13:06:16.054Z,61.80
2022-11-03T13:08:43.470Z,62.20
2022-11-03T13:11:30.995Z,62.60
2022-11-03T13:13:57.932Z,62.70
2022-11-03T13:16:24.616Z,62.90
2022-11-03T13:18:51.326Z,62.70
2022-11-03T13:21:18.266Z,62.90
2022-11-03T13:23:44.990Z,62.90
2022-11-03T13:26:11.664Z,63.20
2022-11-03T13:28:38.412Z,63.20
2022-11-03T13:31:05.209Z,63.00
2022-11-03T13:33:31.919Z,63.00
2022-11-03T13:35:58.673Z,62.90
2022-11-03T13:38:25.468Z,62.70
2022-11-03T13:40:57.102Z,62.60
2022-11-03T13:43:24.961Z,62.50
2022-11-03T13:45:52.848Z,62.70
2022-11-03T13:49:21.519Z,62.90
2022-11-03T13:51:06.405Z,62.90
2022-11-03T13:56:22.209Z,64.00
2022-11-03T14:01:37.840Z,65.00
2022-11-03T14:06:52.215Z,65.40
2022-11-03T14:09:18.891Z,65.30
2022-11-03T14:12:04.054Z,65.10
2022-11-03T14:14:30.790Z,65.60
2022-11-03T14:16:57.583Z,66.00
2022-11-03T14:19:28.805Z,66.40
2022-11-03T14:22:02.190Z,66.70
2022-11-03T14:24:29.070Z,67.50
2022-11-03T14:26:55.771Z,68.00
2022-11-03T14:29:22.604Z,68.30
2022-11-03T14:31:49.371Z,68.80
2022-11-03T14:34:16.106Z,69.10
2022-11-03T14:36:42.981Z,69.20
2022-11-03T14:39:09.770Z,69.40
2022-11-03T14:41:55.375Z,69.90
2022-11-03T14:44:22.115Z,70.00
2022-11-03T14:46:48.829Z,70.60
2022-11-03T14:49:15.554Z,70.90
2022-11-03T14:51:42.923Z,71.30
2022-11-03T14:54:09.604Z,71.50
2022-11-03T14:56:36.327Z,71.50
2022-11-03T14:59:03.096Z,71.50
2022-11-03T15:01:31.002Z,71.60
2022-11-03T15:03:57.879Z,72.00
2022-11-03T15:06:25.058Z,71.80
2022-11-03T15:08:56.191Z,71.90
2022-11-03T15:11:23.389Z,72.10
2022-11-03T15:13:52.619Z,72.20
2022-11-03T15:16:19.574Z,72.30
2022-11-03T15:18:46.248Z,72.50
2022-11-03T15:21:13.254Z,72.70
2022-11-03T15:26:26.642Z,73.10
2022-11-03T15:28:53.675Z,73.20
2022-11-03T15:31:20.410Z,73.10
2022-11-03T15:33:47.159Z,73.10
2022-11-03T15:36:13.878Z,73.30
2022-11-03T15:38:40.598Z,73.40
2022-11-03T15:41:16.139Z,73.40
2022-11-03T15:43:44.708Z,73.70
2022-11-03T15:46:12.192Z,73.90
2022-11-03T15:48:39.448Z,74.00
2022-11-03T15:51:06.629Z,74.10
2022-11-03T15:53:33.520Z,74.00
2022-11-03T15:56:00.574Z,74.20
2022-11-03T15:58:27.359Z,74.30
2022-11-03T16:00:54.300Z,74.90
2022-11-03T16:03:21.208Z,75.60
2022-11-03T16:05:47.971Z,76.40
2022-11-03T16:08:14.626Z,76.90
2022-11-03T16:10:46.562Z,76.80
2022-11-03T16:13:17.423Z,77.00
2022-11-03T16:15:44.312Z,76.80
2022-11-03T16:18:12.032Z,76.90
2022-11-03T16:20:38.784Z,76.90
2022-11-03T16:23:05.584Z,77.50
2022-11-03T16:25:32.257Z,78.00
2022-11-03T16:27:59.074Z,78.10
2022-11-03T16:30:25.778Z,78.20
2022-11-03T16:32:55.282Z,78.20
2022-11-03T16:35:22.180Z,78.30
2022-11-03T16:37:49.538Z,78.20
2022-11-03T16:40:19.460Z,78.00
2022-11-03T16:42:47.311Z,77.90
2022-11-03T16:45:20.335Z,78.30
2022-11-03T16:47:47.882Z,78.50
2022-11-03T16:50:16.258Z,78.60
2022-11-03T16:52:44.168Z,78.60
2022-11-03T16:55:11.905Z,79.00
2022-11-03T16:57:39.542Z,79.20
2022-11-03T17:00:08.590Z,79.20
2022-11-03T17:02:35.610Z,79.40
2022-11-03T17:05:03.422Z,79.30
2022-11-03T17:07:30.119Z,79.50
2022-11-03T17:09:56.985Z,79.80
2022-11-03T17:12:23.692Z,79.60
2022-11-03T17:14:52.664Z,79.80
2022-11-03T17:17:22.386Z,79.90
2022-11-03T17:19:49.080Z,79.70
2022-11-03T17:22:15.758Z,80.20
2022-11-03T17:24:42.596Z,80.40
2022-11-03T17:27:19.382Z,80.60
2022-11-03T17:29:56.585Z,80.50
2022-11-03T17:32:27.062Z,80.90
2022-11-03T17:34:54.249Z,80.50
2022-11-03T17:37:21.274Z,80.30
2022-11-03T17:39:48.007Z,80.20
2022-11-03T17:42:21.160Z,80.00
2022-11-03T17:44:50.185Z,79.50
2022-11-03T17:47:17.958Z,79.40
2022-11-03T17:49:45.615Z,79.50
2022-11-03T17:52:31.846Z,79.40
2022-11-03T17:55:02.966Z,79.30
2022-11-03T17:57:30.321Z,79.00
2022-11-03T18:00:00.603Z,79.10
2022-11-03T18:02:31.575Z,79.10
2022-11-03T18:05:15.292Z,79.20
2022-11-03T18:07:45.226Z,79.80
2022-11-03T18:10:11.917Z,79.50
2022-11-03T18:13:00.851Z,79.20
2022-11-03T18:15:29.894Z,79.50
2022-11-03T18:17:56.778Z,79.60
2022-11-03T18:20:29.197Z,79.50
2022-11-03T18:23:17.025Z,79.50
2022-11-03T18:25:44.678Z,79.00
2022-11-03T18:28:12.292Z,79.20
2022-11-03T18:30:40.599Z,79.90
2022-11-03T18:33:15.555Z,80.40
2022-11-03T18:35:42.589Z,80.70
2022-11-03T18:38:13.112Z,80.70
2022-11-03T18:40:40.598Z,80.60
2022-11-03T18:43:24.512Z,79.90
2022-11-03T18:45:52.499Z,80.40
2022-11-03T18:48:19.533Z,80.90
2022-11-03T18:50:51.888Z,80.80
2022-11-03T18:53:21.574Z,80.60
2022-11-03T18:55:48.772Z,80.60
2022-11-03T18:58:22.285Z,80.50
2022-11-03T19:00:49.049Z,80.40
2022-11-03T19:03:18.208Z,79.90
2022-11-03T19:05:47.610Z,80.10
2022-11-03T19:08:30.092Z,80.20
2022-11-03T19:10:57.714Z,80.30
2022-11-03T19:13:37.630Z,80.30
2022-11-03T19:16:30.852Z,80.30
2022-11-03T19:18:57.525Z,80.50
2022-11-03T19:21:24.934Z,80.10
2022-11-03T19:23:58.034Z,80.00
2022-11-03T19:26:35.849Z,79.60
2022-11-03T19:29:09.051Z,80.60
2022-11-03T19:31:46.990Z,81.70
2022-11-03T19:34:20.931Z,81.60
2022-11-03T19:36:49.187Z,81.70
2022-11-03T19:39:22.814Z,81.60
2022-11-03T19:42:08.142Z,81.40
2022-11-03T19:47:06.725Z,81.10
2022-11-03T19:49:34.332Z,80.60
2022-11-03T19:52:01.112Z,79.70
2022-11-03T19:54:27.908Z,80.20
2022-11-03T19:56:54.576Z,80.80
2022-11-03T19:59:21.243Z,81.60
2022-11-03T20:01:49.603Z,81.40
2022-11-03T20:04:16.458Z,81.40
2022-11-03T20:06:43.182Z,81.10
2022-11-03T20:09:18.195Z,81.10
2022-11-03T20:11:45.663Z,81.50
2022-11-03T20:14:19.156Z,81.40
2022-11-03T20:16:45.874Z,81.50
2022-11-03T20:19:12.610Z,81.10
2022-11-03T20:21:40.968Z,81.20
2022-11-03T20:24:09.830Z,81.10
2022-11-03T20:26:36.696Z,81.00
2022-11-03T20:29:03.637Z,81.10
2022-11-03T20:31:30.360Z,80.80
2022-11-03T20:33:57.048Z,80.60
2022-11-03T20:36:23.826Z,82.00
2022-11-03T20:38:59.555Z,82.00
2022-11-03T20:41:29.182Z,82.80
2022-11-03T20:43:56.924Z,82.70
2022-11-03T20:46:33.521Z,82.20
2022-11-03T20:49:00.539Z,81.80
2022-11-03T20:51:31.421Z,81.50
2022-11-03T20:53:59.408Z,82.40
2022-11-03T20:56:28.266Z,82.70
2022-11-03T20:58:55.596Z,83.10
2022-11-03T21:01:26.495Z,83.00
2022-11-03T21:03:59.169Z,83.10
2022-11-03T21:06:28.615Z,82.90
2022-11-03T21:08:55.341Z,83.40
2022-11-03T21:11:29.189Z,83.60
2022-11-03T21:14:12.924Z,83.80
2022-11-03T21:16:58.832Z,84.00
2022-11-03T21:19:47.287Z,83.90
2022-11-03T21:22:54.550Z,83.70
2022-11-03T21:25:14.037Z,83.50
2022-11-03T21:27:42.144Z,82.80
2022-11-03T21:30:11.787Z,82.90
2022-11-03T21:32:38.527Z,82.40
2022-11-03T21:35:06.416Z,82.00
2022-11-03T21:37:33.108Z,82.20
2022-11-03T21:39:59.771Z,82.30
2022-11-03T21:42:44.931Z,82.30
2022-11-03T21:45:12.552Z,82.00
2022-11-03T21:47:39.280Z,82.00
2022-11-03T21:50:06.238Z,81.90
2022-11-03T21:52:32.938Z,83.90
2022-11-03T21:55:01.406Z,83.80
2022-11-03T21:57:28.906Z,82.90
2022-11-03T21:59:58.828Z,79.00
2022-11-03T22:02:26.943Z,76.10
2022-11-03T22:04:56.914Z,73.80
2022-11-03T22:07:24.040Z,71.90
2022-11-03T22:09:50.808Z,70.90
2022-11-03T22:12:17.577Z,71.00
2022-11-03T22:15:02.767Z,70.90
2022-11-03T22:17:29.422Z,72.20
2022-11-03T22:20:14.643Z,72.60
2022-11-03T22:23:00.144Z,72.90
2022-11-03T22:25:45.358Z,74.10
2022-11-03T22:28:14.775Z,75.00
2022-11-03T22:31:00.578Z,75.90
2022-11-03T22:33:27.357Z,76.50
2022-11-03T22:36:21.313Z,77.10
2022-11-03T22:39:06.970Z,77.70
2022-11-03T22:41:52.404Z,78.70
2022-11-03T22:44:37.907Z,79.30
2022-11-03T22:47:08.108Z,79.90
2022-11-03T22:49:35.586Z,80.10
2022-11-03T22:52:02.636Z,80.30
2022-11-03T22:54:29.329Z,79.60
2022-11-03T22:56:56.012Z,79.40
2022-11-03T23:00:54.527Z,78.70
2022-11-03T23:03:21.225Z,78.70
2022-11-03T23:05:47.963Z,78.40
2022-11-03T23:08:41.418Z,77.20
2022-11-03T23:11:16.110Z,77.40
2022-11-03T23:14:04.724Z,77.20
2022-11-03T23:16:36.364Z,76.40
2022-11-03T23:19:22.767Z,76.50
2022-11-03T23:21:51.637Z,76.20
2022-11-03T23:24:42.171Z,76.20
2022-11-03T23:27:12.603Z,75.90
2022-11-03T23:29:39.328Z,74.50
2022-11-03T23:32:06.478Z,75.80
2022-11-03T23:34:34.708Z,76.60
2022-11-03T23:37:01.403Z,76.00
2022-11-03T23:39:28.089Z,75.70
2022-11-03T23:41:54.774Z,76.30
2022-11-03T23:44:21.512Z,77.70
2022-11-03T23:48:46.307Z,76.80
2022-11-03T23:51:20.773Z,78.50
2022-11-03T23:53:47.964Z,79.80
2022-11-03T23:56:35.591Z,79.80
2022-11-03T23:59:03.559Z,77.00
